sensor_id;sensor_type;location;lat;lon;timestamp;P1;durP1;ratioP1;P2;durP2;ratioP2
12296;SDS011;6211;49.124;9.152;2022-08-01T00:02:21;1.70;;;1.60;;
12296;SDS011;6211;49.124;9.152;2022-08-01T00:04:49;1.52;;;1.35;;
12296;SDS011;6211;49.124;9.152;2022-08-01T00:07:16;1.30;;;1.20;;
12296;SDS011;6211;49.124;9.152;2022-08-01T00:09:43;5.10;;;1.42;;
12296;SDS011;6211;49.124;9.152;2022-08-01T00:12:10;1.60;;;1.50;;
12296;SDS011;6211;49.124;9.152;2022-08-01T00:14:37;1.67;;;1.33;;
12296;SDS011;6211;49.124;9.152;2022-08-01T00:17:04;1.40;;;1.30;;
12296;SDS011;6211;49.124;9.152;2022-08-01T00:19:33;1.95;;;1.40;;
12296;SDS011;6211;49.124;9.152;2022-08-01T00:22:00;1.40;;;1.30;;
12296;SDS011;6211;49.124;9.152;2022-08-01T00:24:27;1.55;;;1.45;;
12296;SDS011;6211;49.124;9.152;2022-08-01T00:26:54;2.25;;;1.40;;
12296;SDS011;6211;49.124;9.152;2022-08-01T00:29:21;2.00;;;1.85;;
12296;SDS011;6211;49.124;9.152;2022-08-01T00:31:48;1.55;;;1.38;;
12296;SDS011;6211;49.124;9.152;2022-08-01T00:34:16;1.48;;;1.38;;
12296;SDS011;6211;49.124;9.152;2022-08-01T00:36:44;1.48;;;1.17;;
12296;SDS011;6211;49.124;9.152;2022-08-01T00:39:11;1.90;;;1.27;;
12296;SDS011;6211;49.124;9.152;2022-08-01T00:41:38;1.83;;;1.42;;
12296;SDS011;6211;49.124;9.152;2022-08-01T00:44:05;1.70;;;1.50;;
12296;SDS011;6211;49.124;9.152;2022-08-01T00:46:33;2.17;;;1.42;;
12296;SDS011;6211;49.124;9.152;2022-08-01T00:49:00;1.30;;;1.20;;
12296;SDS011;6211;49.124;9.152;2022-08-01T00:51:27;1.65;;;1.55;;
12296;SDS011;6211;49.124;9.152;2022-08-01T00:53:55;1.65;;;1.17;;
12296;SDS011;6211;49.124;9.152;2022-08-01T00:56:24;1.50;;;1.40;;
12296;SDS011;6211;49.124;9.152;2022-08-01T00:58:51;1.40;;;1.30;;
12296;SDS011;6211;49.124;9.152;2022-08-01T01:01:18;1.50;;;1.13;;
12296;SDS011;6211;49.124;9.152;2022-08-01T01:03:45;1.65;;;1.42;;
12296;SDS011;6211;49.124;9.152;2022-08-01T01:06:14;1.10;;;1.05;;
12296;SDS011;6211;49.124;9.152;2022-08-01T01:08:46;2.88;;;1.50;;
12296;SDS011;6211;49.124;9.152;2022-08-01T01:11:17;1.40;;;1.30;;
12296;SDS011;6211;49.124;9.152;2022-08-01T01:13:49;1.80;;;1.27;;
12296;SDS011;6211;49.124;9.152;2022-08-01T01:16:19;1.50;;;1.40;;
12296;SDS011;6211;49.124;9.152;2022-08-01T01:18:48;1.23;;;1.13;;
12296;SDS011;6211;49.124;9.152;2022-08-01T01:21:28;2.28;;;1.20;;
12296;SDS011;6211;49.124;9.152;2022-08-01T01:23:58;3.33;;;1.30;;
12296;SDS011;6211;49.124;9.152;2022-08-01T01:26:31;1.40;;;1.30;;
12296;SDS011;6211;49.124;9.152;2022-08-01T01:29:06;2.95;;;1.50;;
12296;SDS011;6211;49.124;9.152;2022-08-01T01:31:36;2.60;;;1.40;;
12296;SDS011;6211;49.124;9.152;2022-08-01T01:34:06;3.00;;;1.35;;
12296;SDS011;6211;49.124;9.152;2022-08-01T01:36:34;1.40;;;1.23;;
12296;SDS011;6211;49.124;9.152;2022-08-01T01:39:02;1.60;;;1.50;;
12296;SDS011;6211;49.124;9.152;2022-08-01T01:41:29;2.13;;;1.40;;
12296;SDS011;6211;49.124;9.152;2022-08-01T01:43:57;1.95;;;1.60;;
12296;SDS011;6211;49.124;9.152;2022-08-01T01:46:26;1.60;;;1.08;;
12296;SDS011;6211;49.124;9.152;2022-08-01T01:48:55;1.45;;;1.35;;
12296;SDS011;6211;49.124;9.152;2022-08-01T01:51:22;1.70;;;1.60;;
12296;SDS011;6211;49.124;9.152;2022-08-01T01:53:50;2.58;;;1.23;;
12296;SDS011;6211;49.124;9.152;2022-08-01T01:56:19;1.48;;;1.38;;
12296;SDS011;6211;49.124;9.152;2022-08-01T01:58:48;2.03;;;1.17;;
12296;SDS011;6211;49.124;9.152;2022-08-01T02:01:15;2.63;;;1.67;;
12296;SDS011;6211;49.124;9.152;2022-08-01T02:03:45;1.60;;;1.50;;
12296;SDS011;6211;49.124;9.152;2022-08-01T02:06:13;1.83;;;1.20;;
12296;SDS011;6211;49.124;9.152;2022-08-01T02:08:41;1.38;;;1.27;;
12296;SDS011;6211;49.124;9.152;2022-08-01T02:11:08;2.05;;;1.10;;
12296;SDS011;6211;49.124;9.152;2022-08-01T02:13:46;2.13;;;1.10;;
12296;SDS011;6211;49.124;9.152;2022-08-01T02:16:15;3.28;;;1.70;;
12296;SDS011;6211;49.124;9.152;2022-08-01T02:18:43;1.48;;;1.38;;
12296;SDS011;6211;49.124;9.152;2022-08-01T02:21:12;1.58;;;1.35;;
12296;SDS011;6211;49.124;9.152;2022-08-01T02:23:40;1.27;;;1.17;;
12296;SDS011;6211;49.124;9.152;2022-08-01T02:26:09;1.52;;;1.42;;
12296;SDS011;6211;49.124;9.152;2022-08-01T02:28:38;1.48;;;1.30;;
12296;SDS011;6211;49.124;9.152;2022-08-01T02:31:08;1.67;;;1.40;;
12296;SDS011;6211;49.124;9.152;2022-08-01T02:33:40;1.67;;;1.00;;
12296;SDS011;6211;49.124;9.152;2022-08-01T02:36:07;2.70;;;1.38;;
12296;SDS011;6211;49.124;9.152;2022-08-01T02:38:37;1.13;;;1.02;;
12296;SDS011;6211;49.124;9.152;2022-08-01T02:41:07;1.10;;;1.00;;
12296;SDS011;6211;49.124;9.152;2022-08-01T02:43:36;1.20;;;1.10;;
12296;SDS011;6211;49.124;9.152;2022-08-01T02:46:04;1.40;;;1.05;;
12296;SDS011;6211;49.124;9.152;2022-08-01T02:48:33;2.67;;;1.20;;
12296;SDS011;6211;49.124;9.152;2022-08-01T02:51:01;1.45;;;1.20;;
12296;SDS011;6211;49.124;9.152;2022-08-01T02:53:30;2.53;;;1.20;;
12296;SDS011;6211;49.124;9.152;2022-08-01T02:56:03;1.70;;;1.10;;
12296;SDS011;6211;49.124;9.152;2022-08-01T02:58:31;1.38;;;1.25;;
12296;SDS011;6211;49.124;9.152;2022-08-01T03:00:58;2.90;;;1.20;;
12296;SDS011;6211;49.124;9.152;2022-08-01T03:03:26;1.58;;;1.20;;
12296;SDS011;6211;49.124;9.152;2022-08-01T03:05:53;1.30;;;1.20;;
12296;SDS011;6211;49.124;9.152;2022-08-01T03:08:21;1.05;;;1.05;;
12296;SDS011;6211;49.124;9.152;2022-08-01T03:10:49;1.40;;;1.30;;
12296;SDS011;6211;49.124;9.152;2022-08-01T03:13:18;1.23;;;1.13;;
12296;SDS011;6211;49.124;9.152;2022-08-01T03:15:46;1.25;;;1.17;;
12296;SDS011;6211;49.124;9.152;2022-08-01T03:18:14;1.98;;;1.40;;
12296;SDS011;6211;49.124;9.152;2022-08-01T03:20:42;1.45;;;1.00;;
12296;SDS011;6211;49.124;9.152;2022-08-01T03:23:11;2.45;;;1.50;;
12296;SDS011;6211;49.124;9.152;2022-08-01T03:25:39;1.23;;;1.08;;
12296;SDS011;6211;49.124;9.152;2022-08-01T03:28:08;2.20;;;1.48;;
12296;SDS011;6211;49.124;9.152;2022-08-01T03:30:37;1.33;;;1.23;;
12296;SDS011;6211;49.124;9.152;2022-08-01T03:33:05;2.55;;;1.60;;
12296;SDS011;6211;49.124;9.152;2022-08-01T03:35:33;3.20;;;1.65;;
12296;SDS011;6211;49.124;9.152;2022-08-01T03:38:01;1.35;;;1.25;;
12296;SDS011;6211;49.124;9.152;2022-08-01T03:40:30;1.70;;;1.15;;
12296;SDS011;6211;49.124;9.152;2022-08-01T03:42:59;1.45;;;1.30;;
12296;SDS011;6211;49.124;9.152;2022-08-01T03:45:30;1.80;;;1.40;;
12296;SDS011;6211;49.124;9.152;2022-08-01T03:48:01;1.67;;;1.42;;
12296;SDS011;6211;49.124;9.152;2022-08-01T03:50:28;1.40;;;1.30;;
12296;SDS011;6211;49.124;9.152;2022-08-01T03:52:59;1.25;;;1.13;;
12296;SDS011;6211;49.124;9.152;2022-08-01T03:55:26;4.22;;;1.50;;
12296;SDS011;6211;49.124;9.152;2022-08-01T03:57:54;2.65;;;1.40;;
12296;SDS011;6211;49.124;9.152;2022-08-01T04:00:22;2.00;;;1.60;;
12296;SDS011;6211;49.124;9.152;2022-08-01T04:02:50;1.55;;;1.45;;
12296;SDS011;6211;49.124;9.152;2022-08-01T04:05:19;1.63;;;1.33;;
12296;SDS011;6211;49.124;9.152;2022-08-01T04:07:47;1.08;;;0.98;;
12296;SDS011;6211;49.124;9.152;2022-08-01T04:10:20;1.30;;;1.20;;
12296;SDS011;6211;49.124;9.152;2022-08-01T04:12:47;1.50;;;1.40;;
12296;SDS011;6211;49.124;9.152;2022-08-01T04:15:14;3.65;;;1.48;;
12296;SDS011;6211;49.124;9.152;2022-08-01T04:17:41;1.30;;;1.17;;
12296;SDS011;6211;49.124;9.152;2022-08-01T04:20:09;1.25;;;1.00;;
12296;SDS011;6211;49.124;9.152;2022-08-01T04:22:37;1.75;;;1.40;;
12296;SDS011;6211;49.124;9.152;2022-08-01T04:25:07;1.80;;;1.10;;
12296;SDS011;6211;49.124;9.152;2022-08-01T04:27:36;1.60;;;1.48;;
12296;SDS011;6211;49.124;9.152;2022-08-01T04:30:04;1.05;;;0.95;;
12296;SDS011;6211;49.124;9.152;2022-08-01T04:32:33;1.20;;;1.10;;
12296;SDS011;6211;49.124;9.152;2022-08-01T04:35:01;1.33;;;1.23;;
12296;SDS011;6211;49.124;9.152;2022-08-01T04:37:29;1.77;;;1.40;;
12296;SDS011;6211;49.124;9.152;2022-08-01T04:39:58;1.25;;;1.15;;
12296;SDS011;6211;49.124;9.152;2022-08-01T04:42:26;1.88;;;1.33;;
12296;SDS011;6211;49.124;9.152;2022-08-01T04:44:54;2.60;;;1.50;;
12296;SDS011;6211;49.124;9.152;2022-08-01T04:47:21;5.18;;;1.48;;
12296;SDS011;6211;49.124;9.152;2022-08-01T04:49:49;1.33;;;1.23;;
12296;SDS011;6211;49.124;9.152;2022-08-01T04:52:16;1.25;;;1.15;;
12296;SDS011;6211;49.124;9.152;2022-08-01T04:54:43;1.40;;;1.27;;
12296;SDS011;6211;49.124;9.152;2022-08-01T04:57:12;1.98;;;1.17;;
12296;SDS011;6211;49.124;9.152;2022-08-01T04:59:42;2.38;;;1.83;;
12296;SDS011;6211;49.124;9.152;2022-08-01T05:02:10;1.60;;;1.13;;
12296;SDS011;6211;49.124;9.152;2022-08-01T05:04:37;1.90;;;1.15;;
12296;SDS011;6211;49.124;9.152;2022-08-01T05:07:06;1.13;;;1.05;;
12296;SDS011;6211;49.124;9.152;2022-08-01T05:09:33;1.45;;;1.35;;
12296;SDS011;6211;49.124;9.152;2022-08-01T05:12:01;2.20;;;1.55;;
12296;SDS011;6211;49.124;9.152;2022-08-01T05:14:30;1.40;;;1.05;;
12296;SDS011;6211;49.124;9.152;2022-08-01T05:16:57;1.75;;;0.88;;
12296;SDS011;6211;49.124;9.152;2022-08-01T05:19:28;1.20;;;1.10;;
12296;SDS011;6211;49.124;9.152;2022-08-01T05:21:56;1.58;;;1.15;;
12296;SDS011;6211;49.124;9.152;2022-08-01T05:24:25;1.35;;;1.25;;
12296;SDS011;6211;49.124;9.152;2022-08-01T05:26:53;2.50;;;1.60;;
12296;SDS011;6211;49.124;9.152;2022-08-01T05:29:20;1.30;;;1.20;;
12296;SDS011;6211;49.124;9.152;2022-08-01T05:31:48;1.40;;;1.30;;
12296;SDS011;6211;49.124;9.152;2022-08-01T05:34:16;1.45;;;1.35;;
12296;SDS011;6211;49.124;9.152;2022-08-01T05:36:43;1.25;;;1.15;;
12296;SDS011;6211;49.124;9.152;2022-08-01T05:39:10;3.38;;;1.25;;
12296;SDS011;6211;49.124;9.152;2022-08-01T05:41:38;1.20;;;1.10;;
12296;SDS011;6211;49.124;9.152;2022-08-01T05:44:05;1.10;;;1.02;;
12296;SDS011;6211;49.124;9.152;2022-08-01T05:46:33;1.83;;;1.30;;
12296;SDS011;6211;49.124;9.152;2022-08-01T05:49:03;1.20;;;1.10;;
12296;SDS011;6211;49.124;9.152;2022-08-01T05:51:31;1.40;;;1.17;;
12296;SDS011;6211;49.124;9.152;2022-08-01T05:53:58;1.33;;;1.20;;
12296;SDS011;6211;49.124;9.152;2022-08-01T05:56:25;1.20;;;1.10;;
12296;SDS011;6211;49.124;9.152;2022-08-01T05:58:53;1.35;;;1.08;;
12296;SDS011;6211;49.124;9.152;2022-08-01T06:01:20;1.00;;;0.90;;
12296;SDS011;6211;49.124;9.152;2022-08-01T06:03:47;2.92;;;0.98;;
12296;SDS011;6211;49.124;9.152;2022-08-01T06:06:15;1.10;;;1.00;;
12296;SDS011;6211;49.124;9.152;2022-08-01T06:08:42;0.90;;;0.90;;
12296;SDS011;6211;49.124;9.152;2022-08-01T06:11:09;1.27;;;1.10;;
12296;SDS011;6211;49.124;9.152;2022-08-01T06:13:37;1.23;;;1.10;;
12296;SDS011;6211;49.124;9.152;2022-08-01T06:16:04;3.53;;;0.95;;
12296;SDS011;6211;49.124;9.152;2022-08-01T06:18:31;3.45;;;1.10;;
12296;SDS011;6211;49.124;9.152;2022-08-01T06:20:59;1.00;;;0.95;;
12296;SDS011;6211;49.124;9.152;2022-08-01T06:23:27;0.82;;;0.82;;
12296;SDS011;6211;49.124;9.152;2022-08-01T06:25:54;0.80;;;0.80;;
12296;SDS011;6211;49.124;9.152;2022-08-01T06:28:22;1.50;;;1.40;;
12296;SDS011;6211;49.124;9.152;2022-08-01T06:30:50;2.28;;;0.85;;
12296;SDS011;6211;49.124;9.152;2022-08-01T06:33:17;1.27;;;1.08;;
12296;SDS011;6211;49.124;9.152;2022-08-01T06:35:44;0.65;;;0.65;;
12296;SDS011;6211;49.124;9.152;2022-08-01T06:38:11;1.02;;;0.80;;
12296;SDS011;6211;49.124;9.152;2022-08-01T06:40:39;0.80;;;0.80;;
12296;SDS011;6211;49.124;9.152;2022-08-01T06:43:07;1.17;;;0.82;;
12296;SDS011;6211;49.124;9.152;2022-08-01T06:45:36;1.10;;;0.93;;
12296;SDS011;6211;49.124;9.152;2022-08-01T06:48:03;0.50;;;0.50;;
12296;SDS011;6211;49.124;9.152;2022-08-01T06:50:31;1.35;;;0.95;;
12296;SDS011;6211;49.124;9.152;2022-08-01T06:52:58;0.95;;;0.93;;
12296;SDS011;6211;49.124;9.152;2022-08-01T06:55:25;0.90;;;0.80;;
12296;SDS011;6211;49.124;9.152;2022-08-01T06:57:53;1.00;;;1.00;;
12296;SDS011;6211;49.124;9.152;2022-08-01T07:00:21;0.82;;;0.82;;
12296;SDS011;6211;49.124;9.152;2022-08-01T07:02:48;0.60;;;0.60;;
12296;SDS011;6211;49.124;9.152;2022-08-01T07:05:15;1.63;;;1.02;;
12296;SDS011;6211;49.124;9.152;2022-08-01T07:07:42;0.88;;;0.80;;
12296;SDS011;6211;49.124;9.152;2022-08-01T07:10:10;0.57;;;0.57;;
12296;SDS011;6211;49.124;9.152;2022-08-01T07:12:37;0.70;;;0.70;;
12296;SDS011;6211;49.124;9.152;2022-08-01T07:15:07;0.70;;;0.70;;
12296;SDS011;6211;49.124;9.152;2022-08-01T07:17:36;3.15;;;0.75;;
12296;SDS011;6211;49.124;9.152;2022-08-01T07:20:04;0.80;;;0.80;;
12296;SDS011;6211;49.124;9.152;2022-08-01T07:22:31;1.42;;;0.88;;
12296;SDS011;6211;49.124;9.152;2022-08-01T07:25:00;1.52;;;0.80;;
12296;SDS011;6211;49.124;9.152;2022-08-01T07:27:27;1.25;;;0.90;;
12296;SDS011;6211;49.124;9.152;2022-08-01T07:29:54;1.13;;;1.00;;
12296;SDS011;6211;49.124;9.152;2022-08-01T07:32:23;0.85;;;0.85;;
12296;SDS011;6211;49.124;9.152;2022-08-01T07:34:50;2.55;;;0.88;;
12296;SDS011;6211;49.124;9.152;2022-08-01T07:37:17;0.75;;;0.68;;
12296;SDS011;6211;49.124;9.152;2022-08-01T07:39:44;2.92;;;1.25;;
12296;SDS011;6211;49.124;9.152;2022-08-01T07:42:11;5.47;;;1.20;;
12296;SDS011;6211;49.124;9.152;2022-08-01T07:44:38;1.10;;;1.08;;
12296;SDS011;6211;49.124;9.152;2022-08-01T07:47:05;2.95;;;1.65;;
12296;SDS011;6211;49.124;9.152;2022-08-01T07:49:34;2.45;;;1.77;;
12296;SDS011;6211;49.124;9.152;2022-08-01T07:52:02;0.90;;;0.90;;
12296;SDS011;6211;49.124;9.152;2022-08-01T07:54:29;1.15;;;0.80;;
12296;SDS011;6211;49.124;9.152;2022-08-01T07:56:56;0.80;;;0.80;;
12296;SDS011;6211;49.124;9.152;2022-08-01T07:59:23;1.55;;;0.90;;
12296;SDS011;6211;49.124;9.152;2022-08-01T08:01:50;0.90;;;0.90;;
12296;SDS011;6211;49.124;9.152;2022-08-01T08:04:17;0.77;;;0.77;;
12296;SDS011;6211;49.124;9.152;2022-08-01T08:06:46;1.25;;;1.15;;
12296;SDS011;6211;49.124;9.152;2022-08-01T08:09:14;1.05;;;0.77;;
12296;SDS011;6211;49.124;9.152;2022-08-01T08:11:41;1.10;;;1.00;;
12296;SDS011;6211;49.124;9.152;2022-08-01T08:14:09;4.57;;;1.10;;
12296;SDS011;6211;49.124;9.152;2022-08-01T08:16:36;0.82;;;0.82;;
12296;SDS011;6211;49.124;9.152;2022-08-01T08:19:04;6.22;;;1.10;;
12296;SDS011;6211;49.124;9.152;2022-08-01T08:21:31;3.53;;;0.90;;
12296;SDS011;6211;49.124;9.152;2022-08-01T08:23:59;0.80;;;0.80;;
12296;SDS011;6211;49.124;9.152;2022-08-01T08:26:44;1.15;;;1.05;;
12296;SDS011;6211;49.124;9.152;2022-08-01T08:29:11;1.10;;;0.80;;
12296;SDS011;6211;49.124;9.152;2022-08-01T08:31:39;0.60;;;0.60;;
12296;SDS011;6211;49.124;9.152;2022-08-01T08:34:06;1.13;;;0.90;;
12296;SDS011;6211;49.124;9.152;2022-08-01T08:36:33;0.70;;;0.70;;
12296;SDS011;6211;49.124;9.152;2022-08-01T08:39:01;0.90;;;0.82;;
12296;SDS011;6211;49.124;9.152;2022-08-01T08:41:29;0.60;;;0.60;;
12296;SDS011;6211;49.124;9.152;2022-08-01T08:43:56;1.83;;;0.80;;
12296;SDS011;6211;49.124;9.152;2022-08-01T08:46:24;0.98;;;0.85;;
12296;SDS011;6211;49.124;9.152;2022-08-01T08:48:52;0.75;;;0.73;;
12296;SDS011;6211;49.124;9.152;2022-08-01T08:51:19;2.22;;;0.80;;
12296;SDS011;6211;49.124;9.152;2022-08-01T08:53:47;1.70;;;0.98;;
12296;SDS011;6211;49.124;9.152;2022-08-01T08:56:15;0.77;;;0.70;;
12296;SDS011;6211;49.124;9.152;2022-08-01T08:58:43;1.05;;;0.90;;
12296;SDS011;6211;49.124;9.152;2022-08-01T09:01:11;0.75;;;0.75;;
12296;SDS011;6211;49.124;9.152;2022-08-01T09:03:38;0.90;;;0.90;;
12296;SDS011;6211;49.124;9.152;2022-08-01T09:06:06;1.02;;;0.80;;
12296;SDS011;6211;49.124;9.152;2022-08-01T09:08:33;0.70;;;0.70;;
12296;SDS011;6211;49.124;9.152;2022-08-01T09:11:00;0.70;;;0.70;;
12296;SDS011;6211;49.124;9.152;2022-08-01T09:13:29;1.15;;;0.70;;
12296;SDS011;6211;49.124;9.152;2022-08-01T09:15:56;1.00;;;0.80;;
12296;SDS011;6211;49.124;9.152;2022-08-01T09:18:28;0.90;;;0.80;;
12296;SDS011;6211;49.124;9.152;2022-08-01T09:21:07;1.92;;;0.85;;
12296;SDS011;6211;49.124;9.152;2022-08-01T09:23:34;1.45;;;0.85;;
12296;SDS011;6211;49.124;9.152;2022-08-01T09:26:04;0.80;;;0.68;;
12296;SDS011;6211;49.124;9.152;2022-08-01T09:28:33;0.70;;;0.70;;
12296;SDS011;6211;49.124;9.152;2022-08-01T09:31:05;2.03;;;0.70;;
12296;SDS011;6211;49.124;9.152;2022-08-01T09:33:46;1.10;;;1.00;;
12296;SDS011;6211;49.124;9.152;2022-08-01T09:36:13;0.57;;;0.57;;
12296;SDS011;6211;49.124;9.152;2022-08-01T09:38:40;2.40;;;1.00;;
12296;SDS011;6211;49.124;9.152;2022-08-01T09:41:07;0.50;;;0.50;;
12296;SDS011;6211;49.124;9.152;2022-08-01T09:43:37;0.73;;;0.73;;
12296;SDS011;6211;49.124;9.152;2022-08-01T09:46:05;0.70;;;0.70;;
12296;SDS011;6211;49.124;9.152;2022-08-01T09:48:36;0.70;;;0.70;;
12296;SDS011;6211;49.124;9.152;2022-08-01T09:51:04;0.60;;;0.60;;
12296;SDS011;6211;49.124;9.152;2022-08-01T09:53:41;0.82;;;0.73;;
12296;SDS011;6211;49.124;9.152;2022-08-01T09:56:09;0.80;;;0.80;;
12296;SDS011;6211;49.124;9.152;2022-08-01T09:58:49;0.77;;;0.70;;
12296;SDS011;6211;49.124;9.152;2022-08-01T10:01:16;1.27;;;0.80;;
12296;SDS011;6211;49.124;9.152;2022-08-01T10:03:44;1.05;;;0.95;;
12296;SDS011;6211;49.124;9.152;2022-08-01T10:06:20;1.27;;;1.17;;
12296;SDS011;6211;49.124;9.152;2022-08-01T10:08:47;0.88;;;0.80;;
12296;SDS011;6211;49.124;9.152;2022-08-01T10:11:15;3.10;;;2.38;;
12296;SDS011;6211;49.124;9.152;2022-08-01T10:13:42;4.47;;;3.92;;
12296;SDS011;6211;49.124;9.152;2022-08-01T10:16:10;2.00;;;1.80;;
12296;SDS011;6211;49.124;9.152;2022-08-01T10:18:39;3.65;;;3.22;;
12296;SDS011;6211;49.124;9.152;2022-08-01T10:21:07;2.22;;;0.73;;
12296;SDS011;6211;49.124;9.152;2022-08-01T10:23:35;0.88;;;0.88;;
12296;SDS011;6211;49.124;9.152;2022-08-01T10:26:02;3.95;;;2.38;;
12296;SDS011;6211;49.124;9.152;2022-08-01T10:28:31;1.17;;;1.15;;
12296;SDS011;6211;49.124;9.152;2022-08-01T10:31:01;0.85;;;0.80;;
12296;SDS011;6211;49.124;9.152;2022-08-01T10:33:29;0.60;;;0.60;;
12296;SDS011;6211;49.124;9.152;2022-08-01T10:35:57;0.70;;;0.70;;
12296;SDS011;6211;49.124;9.152;2022-08-01T10:38:24;1.15;;;0.90;;
12296;SDS011;6211;49.124;9.152;2022-08-01T10:40:51;1.15;;;1.00;;
12296;SDS011;6211;49.124;9.152;2022-08-01T10:43:19;2.65;;;1.00;;
12296;SDS011;6211;49.124;9.152;2022-08-01T10:45:46;0.75;;;0.75;;
12296;SDS011;6211;49.124;9.152;2022-08-01T10:48:14;0.80;;;0.80;;
12296;SDS011;6211;49.124;9.152;2022-08-01T10:50:44;1.02;;;0.80;;
12296;SDS011;6211;49.124;9.152;2022-08-01T10:53:12;0.60;;;0.60;;
12296;SDS011;6211;49.124;9.152;2022-08-01T10:55:46;1.30;;;0.70;;
12296;SDS011;6211;49.124;9.152;2022-08-01T10:58:14;0.60;;;0.60;;
12296;SDS011;6211;49.124;9.152;2022-08-01T11:00:46;0.80;;;0.80;;
12296;SDS011;6211;49.124;9.152;2022-08-01T11:03:13;0.80;;;0.80;;
12296;SDS011;6211;49.124;9.152;2022-08-01T11:05:40;0.77;;;0.77;;
12296;SDS011;6211;49.124;9.152;2022-08-01T11:08:10;1.77;;;1.55;;
12296;SDS011;6211;49.124;9.152;2022-08-01T11:10:40;1.15;;;1.05;;
12296;SDS011;6211;49.124;9.152;2022-08-01T11:13:08;1.80;;;1.10;;
12296;SDS011;6211;49.124;9.152;2022-08-01T11:15:36;0.70;;;0.70;;
12296;SDS011;6211;49.124;9.152;2022-08-01T11:18:04;0.82;;;0.70;;
12296;SDS011;6211;49.124;9.152;2022-08-01T11:20:56;1.15;;;1.00;;
12296;SDS011;6211;49.124;9.152;2022-08-01T11:23:24;0.75;;;0.75;;
12296;SDS011;6211;49.124;9.152;2022-08-01T11:26:08;1.02;;;0.80;;
12296;SDS011;6211;49.124;9.152;2022-08-01T11:28:36;0.77;;;0.68;;
12296;SDS011;6211;49.124;9.152;2022-08-01T11:33:49;1.85;;;0.70;;
12296;SDS011;6211;49.124;9.152;2022-08-01T11:36:18;0.73;;;0.73;;
12296;SDS011;6211;49.124;9.152;2022-08-01T11:38:46;0.45;;;0.45;;
12296;SDS011;6211;49.124;9.152;2022-08-01T11:41:15;0.60;;;0.60;;
12296;SDS011;6211;49.124;9.152;2022-08-01T11:43:54;0.60;;;0.60;;
12296;SDS011;6211;49.124;9.152;2022-08-01T11:49:22;3.25;;;0.90;;
12296;SDS011;6211;49.124;9.152;2022-08-01T11:51:57;1.45;;;0.80;;
12296;SDS011;6211;49.124;9.152;2022-08-01T11:54:25;0.45;;;0.45;;
12296;SDS011;6211;49.124;9.152;2022-08-01T11:56:54;0.68;;;0.57;;
12296;SDS011;6211;49.124;9.152;2022-08-01T11:59:22;1.25;;;0.60;;
12296;SDS011;6211;49.124;9.152;2022-08-01T12:01:49;1.65;;;0.77;;
12296;SDS011;6211;49.124;9.152;2022-08-01T12:04:16;0.60;;;0.60;;
12296;SDS011;6211;49.124;9.152;2022-08-01T12:06:43;0.80;;;0.80;;
12296;SDS011;6211;49.124;9.152;2022-08-01T12:09:21;0.73;;;0.73;;
12296;SDS011;6211;49.124;9.152;2022-08-01T12:11:49;0.75;;;0.75;;
12296;SDS011;6211;49.124;9.152;2022-08-01T12:14:17;0.60;;;0.60;;
12296;SDS011;6211;49.124;9.152;2022-08-01T12:16:49;0.80;;;0.70;;
12296;SDS011;6211;49.124;9.152;2022-08-01T12:19:19;0.50;;;0.50;;
12296;SDS011;6211;49.124;9.152;2022-08-01T12:24:30;0.77;;;0.70;;
12296;SDS011;6211;49.124;9.152;2022-08-01T12:26:57;0.60;;;0.60;;
12296;SDS011;6211;49.124;9.152;2022-08-01T12:29:31;0.80;;;0.70;;
12296;SDS011;6211;49.124;9.152;2022-08-01T12:31:58;0.90;;;0.90;;
12296;SDS011;6211;49.124;9.152;2022-08-01T12:34:26;0.60;;;0.60;;
12296;SDS011;6211;49.124;9.152;2022-08-01T12:36:54;0.55;;;0.55;;
12296;SDS011;6211;49.124;9.152;2022-08-01T12:39:21;0.50;;;0.50;;
12296;SDS011;6211;49.124;9.152;2022-08-01T12:41:50;0.60;;;0.60;;
12296;SDS011;6211;49.124;9.152;2022-08-01T12:44:17;0.68;;;0.68;;
12296;SDS011;6211;49.124;9.152;2022-08-01T12:46:44;0.88;;;0.75;;
12296;SDS011;6211;49.124;9.152;2022-08-01T12:49:12;0.60;;;0.60;;
12296;SDS011;6211;49.124;9.152;2022-08-01T12:51:39;1.33;;;0.90;;
12296;SDS011;6211;49.124;9.152;2022-08-01T12:54:06;0.60;;;0.60;;
12296;SDS011;6211;49.124;9.152;2022-08-01T12:56:35;0.98;;;0.60;;
12296;SDS011;6211;49.124;9.152;2022-08-01T13:01:46;0.93;;;0.82;;
12296;SDS011;6211;49.124;9.152;2022-08-01T13:04:13;2.05;;;0.73;;
12296;SDS011;6211;49.124;9.152;2022-08-01T13:06:40;1.02;;;1.00;;
12296;SDS011;6211;49.124;9.152;2022-08-01T13:09:07;0.85;;;0.77;;
12296;SDS011;6211;49.124;9.152;2022-08-01T13:11:35;0.60;;;0.60;;
12296;SDS011;6211;49.124;9.152;2022-08-01T13:14:02;1.05;;;0.90;;
12296;SDS011;6211;49.124;9.152;2022-08-01T13:16:30;0.88;;;0.75;;
12296;SDS011;6211;49.124;9.152;2022-08-01T13:18:58;0.70;;;0.70;;
12296;SDS011;6211;49.124;9.152;2022-08-01T13:21:26;1.27;;;0.90;;
12296;SDS011;6211;49.124;9.152;2022-08-01T13:24:00;0.82;;;0.80;;
12296;SDS011;6211;49.124;9.152;2022-08-01T13:26:37;1.75;;;0.85;;
12296;SDS011;6211;49.124;9.152;2022-08-01T13:29:05;0.80;;;0.80;;
12296;SDS011;6211;49.124;9.152;2022-08-01T13:31:32;0.60;;;0.60;;
12296;SDS011;6211;49.124;9.152;2022-08-01T13:34:01;0.98;;;0.80;;
12296;SDS011;6211;49.124;9.152;2022-08-01T13:36:28;1.75;;;0.90;;
12296;SDS011;6211;49.124;9.152;2022-08-01T13:38:56;0.70;;;0.70;;
12296;SDS011;6211;49.124;9.152;2022-08-01T13:41:41;0.70;;;0.70;;
12296;SDS011;6211;49.124;9.152;2022-08-01T13:44:08;0.70;;;0.70;;
12296;SDS011;6211;49.124;9.152;2022-08-01T13:46:36;0.98;;;0.60;;
12296;SDS011;6211;49.124;9.152;2022-08-01T13:49:05;0.70;;;0.70;;
12296;SDS011;6211;49.124;9.152;2022-08-01T13:51:32;0.88;;;0.88;;
12296;SDS011;6211;49.124;9.152;2022-08-01T13:54:00;0.60;;;0.60;;
12296;SDS011;6211;49.124;9.152;2022-08-01T13:56:27;0.73;;;0.73;;
12296;SDS011;6211;49.124;9.152;2022-08-01T13:58:54;0.70;;;0.70;;
12296;SDS011;6211;49.124;9.152;2022-08-01T14:01:22;0.88;;;0.88;;
12296;SDS011;6211;49.124;9.152;2022-08-01T14:03:49;1.00;;;1.00;;
12296;SDS011;6211;49.124;9.152;2022-08-01T14:06:18;0.80;;;0.80;;
12296;SDS011;6211;49.124;9.152;2022-08-01T14:08:47;1.65;;;0.80;;
12296;SDS011;6211;49.124;9.152;2022-08-01T14:11:14;0.90;;;0.90;;
12296;SDS011;6211;49.124;9.152;2022-08-01T14:13:41;0.70;;;0.70;;
12296;SDS011;6211;49.124;9.152;2022-08-01T14:16:09;0.70;;;0.70;;
12296;SDS011;6211;49.124;9.152;2022-08-01T14:18:36;0.70;;;0.65;;
12296;SDS011;6211;49.124;9.152;2022-08-01T14:21:03;0.60;;;0.60;;
12296;SDS011;6211;49.124;9.152;2022-08-01T14:23:31;0.43;;;0.43;;
12296;SDS011;6211;49.124;9.152;2022-08-01T14:25:58;0.70;;;0.70;;
12296;SDS011;6211;49.124;9.152;2022-08-01T14:28:26;0.90;;;0.80;;
12296;SDS011;6211;49.124;9.152;2022-08-01T14:30:55;1.95;;;0.63;;
12296;SDS011;6211;49.124;9.152;2022-08-01T14:33:22;0.93;;;0.70;;
12296;SDS011;6211;49.124;9.152;2022-08-01T14:35:49;0.88;;;0.60;;
12296;SDS011;6211;49.124;9.152;2022-08-01T14:38:16;0.82;;;0.80;;
12296;SDS011;6211;49.124;9.152;2022-08-01T14:40:45;0.60;;;0.60;;
12296;SDS011;6211;49.124;9.152;2022-08-01T14:43:16;0.57;;;0.57;;
12296;SDS011;6211;49.124;9.152;2022-08-01T14:45:43;0.85;;;0.70;;
12296;SDS011;6211;49.124;9.152;2022-08-01T14:48:10;0.95;;;0.80;;
12296;SDS011;6211;49.124;9.152;2022-08-01T14:50:37;1.73;;;0.65;;
12296;SDS011;6211;49.124;9.152;2022-08-01T14:53:04;0.60;;;0.60;;
12296;SDS011;6211;49.124;9.152;2022-08-01T14:55:31;0.50;;;0.50;;
12296;SDS011;6211;49.124;9.152;2022-08-01T14:58:00;0.50;;;0.50;;
12296;SDS011;6211;49.124;9.152;2022-08-01T15:00:27;0.50;;;0.50;;
12296;SDS011;6211;49.124;9.152;2022-08-01T15:02:54;0.80;;;0.80;;
12296;SDS011;6211;49.124;9.152;2022-08-01T15:05:22;0.50;;;0.50;;
12296;SDS011;6211;49.124;9.152;2022-08-01T15:07:49;0.52;;;0.52;;
12296;SDS011;6211;49.124;9.152;2022-08-01T15:10:16;0.65;;;0.57;;
12296;SDS011;6211;49.124;9.152;2022-08-01T15:12:43;0.60;;;0.60;;
12296;SDS011;6211;49.124;9.152;2022-08-01T15:15:11;0.55;;;0.55;;
12296;SDS011;6211;49.124;9.152;2022-08-01T15:17:38;1.02;;;0.70;;
12296;SDS011;6211;49.124;9.152;2022-08-01T15:20:06;2.53;;;0.93;;